Time;durP1;ratioP1;P1;durP2;ratioP2;P2;SDS_P1;SDS_P2;PMS_P1;PMS_P2;Temp;Humidity;BMP_temperature;BMP_pressure;BME280_temperature;BME280_humidity;BME280_pressure;Samples;Min_cycle;Max_cycle;Signal;HPM_P1;HPM_P2
2021/03/31 00:01:27;;;;;;;17.67;9.05;;;;;;;;;;5068537;28;20037;-83
2021/03/31 00:03:53;;;;;;;22.40;10.07;;;;;;;;;;5068649;28;20044;-84
2021/03/31 00:06:19;;;;;;;18.83;10.35;;;;;;;;;;5053210;28;20067;-84
2021/03/31 00:08:45;;;;;;;20.23;10.82;;;;;;;;;;5068388;28;20037;-83
2021/03/31 00:11:11;;;;;;;19.80;9.93;;;;;;;;;;5068279;28;20037;-83
2021/03/31 00:13:38;;;;;;;17.33;9.60;;;;;;;;;;5052721;28;20037;-84
2021/03/31 00:16:04;;;;;;;19.30;9.40;;;;;;;;;;5051513;28;20037;-84
2021/03/31 00:18:32;;;;;;;17.50;11.23;;;;;;;;;;5051650;28;20380;-84
2021/03/31 00:20:57;;;;;;;24.52;11.55;;;;;;;;;;5068180;28;20037;-84
2021/03/31 00:23:25;;;;;;;18.50;10.00;;;;;;;;;;5052795;28;20048;-84
2021/03/31 00:25:51;;;;;;;20.52;11.23;;;;;;;;;;5067942;28;20037;-84
2021/03/31 00:28:17;;;;;;;19.52;11.05;;;;;;;;;;5051614;28;20057;-84
2021/03/31 00:30:43;;;;;;;28.27;11.65;;;;;;;;;;5051412;28;20388;-84
2021/03/31 00:33:09;;;;;;;23.13;11.50;;;;;;;;;;5067764;28;20115;-84
2021/03/31 00:35:35;;;;;;;26.05;11.50;;;;;;;;;;5051183;28;20095;-84
2021/03/31 00:38:01;;;;;;;19.40;10.65;;;;;;;;;;5067916;28;20033;-84
2021/03/31 00:40:28;;;;;;;23.30;11.75;;;;;;;;;;5067713;28;20040;-84
2021/03/31 00:42:54;;;;;;;21.40;10.93;;;;;;;;;;5052455;28;20044;-84
2021/03/31 00:45:20;;;;;;;23.98;11.68;;;;;;;;;;5069271;28;20199;-84
2021/03/31 00:47:46;;;;;;;24.05;12.30;;;;;;;;;;5071162;28;20064;-84
2021/03/31 00:50:13;;;;;;;23.50;11.95;;;;;;;;;;5072256;28;20028;-83
2021/03/31 00:52:42;;;;;;;23.92;12.07;;;;;;;;;;5071052;28;20075;-84
2021/03/31 00:55:09;;;;;;;24.77;12.07;;;;;;;;;;5070876;28;20036;-84
2021/03/31 00:57:35;;;;;;;24.35;11.90;;;;;;;;;;5054229;28;20610;-85
2021/03/31 01:00:02;;;;;;;20.58;11.25;;;;;;;;;;5054246;28;20033;-84
2021/03/31 01:02:28;;;;;;;23.42;11.48;;;;;;;;;;5053432;28;20037;-85
2021/03/31 01:04:54;;;;;;;23.05;12.10;;;;;;;;;;5071044;28;20040;-84
2021/03/31 01:07:20;;;;;;;24.58;11.38;;;;;;;;;;5054119;28;20048;-85
2021/03/31 01:09:46;;;;;;;24.38;11.95;;;;;;;;;;5054053;28;20082;-85
2021/03/31 01:12:19;;;;;;;23.75;11.68;;;;;;;;;;5054103;28;20544;-84
2021/03/31 01:15:04;;;;;;;25.20;13.18;;;;;;;;;;5070711;28;20043;-84
2021/03/31 01:17:32;;;;;;;24.60;12.07;;;;;;;;;;5053923;28;20415;-84
2021/03/31 01:20:06;;;;;;;26.52;12.07;;;;;;;;;;5070789;28;20033;-84
2021/03/31 01:22:51;;;;;;;24.58;11.88;;;;;;;;;;5070703;28;20040;-84
2021/03/31 01:25:18;;;;;;;22.05;11.38;;;;;;;;;;5071737;28;20050;-84
2021/03/31 01:27:54;;;;;;;25.50;13.50;;;;;;;;;;5071855;28;20045;-84
2021/03/31 01:30:29;;;;;;;19.02;10.82;;;;;;;;;;5053892;28;20100;-84
2021/03/31 01:33:12;;;;;;;21.48;11.63;;;;;;;;;;5071950;28;20037;-83
2021/03/31 01:35:38;;;;;;;19.98;10.68;;;;;;;;;;5070537;28;20115;-83
2021/03/31 01:38:07;;;;;;;25.15;12.68;;;;;;;;;;5070568;28;20044;-84
2021/03/31 01:40:38;;;;;;;23.10;11.75;;;;;;;;;;5070583;28;20392;-83
2021/03/31 01:43:05;;;;;;;23.45;12.35;;;;;;;;;;5070437;28;20491;-84
2021/03/31 01:45:32;;;;;;;21.88;11.13;;;;;;;;;;5070314;28;20059;-84
2021/03/31 01:48:03;;;;;;;20.27;11.13;;;;;;;;;;5054040;28;20384;-83
2021/03/31 01:50:29;;;;;;;22.50;11.18;;;;;;;;;;5070744;28;20032;-84
2021/03/31 01:52:55;;;;;;;22.23;11.75;;;;;;;;;;5070546;28;20082;-84
2021/03/31 01:55:21;;;;;;;24.10;13.27;;;;;;;;;;5070397;28;20040;-83
2021/03/31 01:57:47;;;;;;;26.73;13.23;;;;;;;;;;5053078;28;20087;-84
2021/03/31 02:00:15;;;;;;;27.75;13.82;;;;;;;;;;5070419;28;20479;-84
2021/03/31 02:02:44;;;;;;;28.15;13.85;;;;;;;;;;5070485;28;20040;-83
2021/03/31 02:05:11;;;;;;;24.23;12.20;;;;;;;;;;5070368;28;20461;-83
2021/03/31 02:07:37;;;;;;;28.40;12.82;;;;;;;;;;5070293;28;20044;-83
2021/03/31 02:10:03;;;;;;;25.20;12.65;;;;;;;;;;5070301;28;20041;-83
2021/03/31 02:12:30;;;;;;;25.25;12.27;;;;;;;;;;5070493;28;20045;-83
2021/03/31 02:14:55;;;;;;;23.58;12.27;;;;;;;;;;5055761;28;20345;-83
2021/03/31 02:17:25;;;;;;;24.55;12.27;;;;;;;;;;5073877;28;20047;-82
2021/03/31 02:19:51;;;;;;;26.10;11.68;;;;;;;;;;5073829;28;20037;-84
2021/03/31 02:22:21;;;;;;;25.48;11.75;;;;;;;;;;5074976;28;20037;-83
2021/03/31 02:24:47;;;;;;;24.92;12.40;;;;;;;;;;5073896;28;20116;-83
2021/03/31 02:27:14;;;;;;;29.67;13.88;;;;;;;;;;5057009;28;20086;-83
2021/03/31 02:29:40;;;;;;;27.80;13.18;;;;;;;;;;5056921;28;20032;-83
2021/03/31 02:32:07;;;;;;;25.27;12.68;;;;;;;;;;5073676;28;20045;-83
2021/03/31 02:34:33;;;;;;;28.27;14.52;;;;;;;;;;5073452;28;20072;-83
2021/03/31 02:36:59;;;;;;;26.45;12.55;;;;;;;;;;5056979;28;20044;-83
2021/03/31 02:39:25;;;;;;;26.70;12.98;;;;;;;;;;5056606;28;20518;-83
2021/03/31 02:41:52;;;;;;;28.92;13.40;;;;;;;;;;5073507;28;20498;-83
2021/03/31 02:44:21;;;;;;;26.00;13.90;;;;;;;;;;5073292;28;20054;-83
2021/03/31 02:46:47;;;;;;;30.40;14.70;;;;;;;;;;5073155;28;20051;-83
2021/03/31 02:49:13;;;;;;;25.25;13.80;;;;;;;;;;5073327;28;20101;-84
2021/03/31 02:51:39;;;;;;;30.65;14.20;;;;;;;;;;5073309;28;20369;-84
2021/03/31 02:54:08;;;;;;;29.52;13.88;;;;;;;;;;5074217;28;20490;-84
2021/03/31 02:56:34;;;;;;;27.25;13.32;;;;;;;;;;5073184;28;20043;-83
2021/03/31 02:59:00;;;;;;;27.73;13.80;;;;;;;;;;5073386;28;20037;-84
2021/03/31 03:01:27;;;;;;;30.13;14.40;;;;;;;;;;5073096;28;20032;-84
2021/03/31 03:03:53;;;;;;;30.77;14.38;;;;;;;;;;5073049;28;20059;-84
2021/03/31 03:06:19;;;;;;;28.30;15.15;;;;;;;;;;5072821;28;20056;-84
2021/03/31 03:08:45;;;;;;;30.38;14.05;;;;;;;;;;5072961;28;20393;-85
2021/03/31 03:11:11;;;;;;;31.95;15.15;;;;;;;;;;5056189;28;20621;-84
2021/03/31 03:13:37;;;;;;;28.23;13.55;;;;;;;;;;5072827;28;20068;-84
2021/03/31 03:16:03;;;;;;;28.75;14.65;;;;;;;;;;5039573;28;20131;-84
2021/03/31 03:18:29;;;;;;;29.75;15.07;;;;;;;;;;5073979;28;20028;-84
2021/03/31 03:20:55;;;;;;;25.77;14.13;;;;;;;;;;5055839;28;20044;-84
2021/03/31 03:23:21;;;;;;;26.90;13.70;;;;;;;;;;5055925;28;20430;-83
2021/03/31 03:25:48;;;;;;;31.85;15.68;;;;;;;;;;5071810;28;20525;-83
2021/03/31 03:28:19;;;;;;;25.73;12.90;;;;;;;;;;5072551;28;20041;-84
2021/03/31 03:30:45;;;;;;;32.55;14.15;;;;;;;;;;5055895;28;20037;-84
2021/03/31 03:33:11;;;;;;;26.08;13.82;;;;;;;;;;5072485;28;20095;-84
2021/03/31 03:35:37;;;;;;;27.20;13.25;;;;;;;;;;5072273;28;20472;-84
2021/03/31 03:38:03;;;;;;;23.70;12.70;;;;;;;;;;5072524;28;20086;-84
2021/03/31 03:40:29;;;;;;;31.50;14.65;;;;;;;;;;5072359;28;20090;-84
2021/03/31 03:42:55;;;;;;;29.20;13.63;;;;;;;;;;5055675;28;20033;-83
2021/03/31 03:45:22;;;;;;;28.42;13.57;;;;;;;;;;5072046;28;20044;-84
2021/03/31 03:47:48;;;;;;;29.55;13.40;;;;;;;;;;5072225;28;20040;-84
2021/03/31 03:50:14;;;;;;;25.05;13.38;;;;;;;;;;5055291;28;20097;-84
2021/03/31 03:52:40;;;;;;;27.83;13.98;;;;;;;;;;5072108;28;20037;-83
2021/03/31 03:55:06;;;;;;;28.15;14.35;;;;;;;;;;5072167;28;20048;-83
2021/03/31 03:57:32;;;;;;;32.38;15.18;;;;;;;;;;5072150;28;20115;-84
2021/03/31 03:59:58;;;;;;;29.17;14.48;;;;;;;;;;5055397;28;20207;-83
2021/03/31 04:02:25;;;;;;;29.48;14.02;;;;;;;;;;5073076;28;20200;-84
2021/03/31 04:04:51;;;;;;;30.40;13.75;;;;;;;;;;5071729;28;20452;-84
2021/03/31 04:07:17;;;;;;;27.02;13.27;;;;;;;;;;5055244;28;20036;-83
2021/03/31 04:09:43;;;;;;;26.35;13.43;;;;;;;;;;5071827;28;20546;-83
2021/03/31 04:12:10;;;;;;;23.67;12.73;;;;;;;;;;5071732;28;20209;-83
2021/03/31 04:14:39;;;;;;;28.38;14.32;;;;;;;;;;5072858;28;20119;-83
2021/03/31 04:17:06;;;;;;;28.88;13.98;;;;;;;;;;5071779;28;20177;-84
2021/03/31 04:19:32;;;;;;;27.83;14.80;;;;;;;;;;5072747;28;20440;-84
2021/03/31 04:21:58;;;;;;;26.58;14.10;;;;;;;;;;5054843;28;20063;-83
2021/03/31 04:24:24;;;;;;;25.20;13.68;;;;;;;;;;5071472;28;20493;-84
2021/03/31 04:26:51;;;;;;;32.53;14.23;;;;;;;;;;5072598;28;20502;-83
2021/03/31 04:29:17;;;;;;;30.35;13.45;;;;;;;;;;5054751;28;20044;-84
2021/03/31 04:31:43;;;;;;;27.25;13.77;;;;;;;;;;5071425;28;20041;-84
2021/03/31 04:34:09;;;;;;;28.67;13.88;;;;;;;;;;5071435;28;20064;-84
2021/03/31 04:36:35;;;;;;;24.15;13.25;;;;;;;;;;5071462;28;20106;-83
2021/03/31 04:39:04;;;;;;;30.60;13.40;;;;;;;;;;5071284;28;20044;-83
2021/03/31 04:41:30;;;;;;;29.02;13.65;;;;;;;;;;5054555;28;20419;-84
2021/03/31 04:43:56;;;;;;;27.23;13.32;;;;;;;;;;5071237;28;20045;-84
2021/03/31 04:46:22;;;;;;;30.65;13.93;;;;;;;;;;5070941;28;20094;-83
2021/03/31 04:48:48;;;;;;;28.10;13.02;;;;;;;;;;5071200;28;20040;-83
2021/03/31 04:51:14;;;;;;;25.02;13.35;;;;;;;;;;5054388;28;20039;-84
2021/03/31 04:53:40;;;;;;;29.50;13.98;;;;;;;;;;5071176;28;20033;-84
2021/03/31 04:56:07;;;;;;;23.88;12.30;;;;;;;;;;5054539;28;20052;-84
2021/03/31 04:58:33;;;;;;;29.80;13.07;;;;;;;;;;5037900;28;20067;-84
2021/03/31 05:01:02;;;;;;;27.83;14.40;;;;;;;;;;5054212;28;20044;-84
2021/03/31 05:03:28;;;;;;;27.95;14.48;;;;;;;;;;5054200;28;20041;-84
2021/03/31 05:05:54;;;;;;;29.35;14.38;;;;;;;;;;5054156;28;20138;-84
2021/03/31 05:08:20;;;;;;;31.17;14.68;;;;;;;;;;5070929;28;20043;-84
2021/03/31 05:10:47;;;;;;;33.28;14.35;;;;;;;;;;5054273;28;20043;-84
2021/03/31 05:13:13;;;;;;;29.90;15.40;;;;;;;;;;5037758;28;20122;-84
2021/03/31 05:15:39;;;;;;;33.10;14.90;;;;;;;;;;5070846;28;20032;-85
2021/03/31 05:18:06;;;;;;;28.65;14.98;;;;;;;;;;5054077;28;20043;-84
2021/03/31 05:20:32;;;;;;;30.10;14.75;;;;;;;;;;5070862;28;20492;-84
2021/03/31 05:22:58;;;;;;;29.58;14.30;;;;;;;;;;5072024;28;20499;-81
2021/03/31 05:25:24;;;;;;;27.65;13.85;;;;;;;;;;5071941;28;20562;-83
2021/03/31 05:27:50;;;;;;;24.23;12.98;;;;;;;;;;5054177;28;20076;-84
2021/03/31 05:30:18;;;;;;;29.90;14.30;;;;;;;;;;5071779;28;20040;-85
2021/03/31 05:32:44;;;;;;;26.45;14.18;;;;;;;;;;5070771;28;20045;-86
2021/03/31 05:35:10;;;;;;;27.38;14.93;;;;;;;;;;5054041;28;20170;-85
2021/03/31 05:37:36;;;;;;;30.13;15.25;;;;;;;;;;5070667;28;20455;-86
2021/03/31 05:40:03;;;;;;;30.02;14.63;;;;;;;;;;5070674;28;20107;-85
2021/03/31 05:42:29;;;;;;;26.83;14.07;;;;;;;;;;5070569;28;20064;-86
2021/03/31 05:44:55;;;;;;;27.50;14.23;;;;;;;;;;5071740;28;20432;-85
2021/03/31 05:47:30;;;;;;;26.58;14.32;;;;;;;;;;5070500;28;20057;-85
2021/03/31 05:49:56;;;;;;;27.17;13.70;;;;;;;;;;5056373;28;20033;-86
2021/03/31 05:52:22;;;;;;;28.08;14.32;;;;;;;;;;5074536;28;20032;-85
2021/03/31 05:54:48;;;;;;;25.08;13.75;;;;;;;;;;5075415;28;20047;-86
2021/03/31 05:57:14;;;;;;;23.17;13.32;;;;;;;;;;5074358;28;20112;-85
2021/03/31 05:59:40;;;;;;;25.30;13.95;;;;;;;;;;5074508;28;20492;-85
2021/03/31 06:02:06;;;;;;;24.55;13.25;;;;;;;;;;5057583;28;20036;-86
2021/03/31 06:04:32;;;;;;;27.58;15.18;;;;;;;;;;5074030;28;20041;-85
2021/03/31 06:06:58;;;;;;;26.45;12.95;;;;;;;;;;5074201;28;20055;-85
2021/03/31 06:09:24;;;;;;;26.13;13.13;;;;;;;;;;5074187;28;20037;-86
2021/03/31 06:11:51;;;;;;;28.00;13.85;;;;;;;;;;5074071;28;20119;-86
2021/03/31 06:14:27;;;;;;;25.58;13.88;;;;;;;;;;5075284;28;20036;-85
2021/03/31 06:16:57;;;;;;;27.23;14.40;;;;;;;;;;5057394;28;20058;-84
2021/03/31 06:19:23;;;;;;;30.58;13.93;;;;;;;;;;5073600;28;20053;-84
2021/03/31 06:21:57;;;;;;;27.05;13.90;;;;;;;;;;5074002;28;20028;-83
2021/03/31 06:24:27;;;;;;;27.25;14.60;;;;;;;;;;5057049;28;20480;-84
2021/03/31 06:26:56;;;;;;;26.83;14.32;;;;;;;;;;5073947;28;20063;-86
2021/03/31 06:29:22;;;;;;;26.42;12.52;;;;;;;;;;5056948;28;20127;-84
2021/03/31 06:31:50;;;;;;;34.35;14.88;;;;;;;;;;5074884;28;20047;-83
2021/03/31 06:34:21;;;;;;;25.65;13.75;;;;;;;;;;5056958;28;20064;-83
2021/03/31 06:36:49;;;;;;;25.10;14.07;;;;;;;;;;5056767;28;20045;-82
2021/03/31 06:39:26;;;;;;;25.70;13.43;;;;;;;;;;5057125;28;20040;-83
2021/03/31 06:42:00;;;;;;;27.85;13.85;;;;;;;;;;5056858;28;20210;-84
2021/03/31 06:44:35;;;;;;;28.50;15.23;;;;;;;;;;5074627;28;20044;-84
2021/03/31 06:47:10;;;;;;;27.65;15.18;;;;;;;;;;5056615;28;20087;-84
2021/03/31 06:49:37;;;;;;;26.92;14.68;;;;;;;;;;5056707;28;20476;-86
2021/03/31 06:52:03;;;;;;;25.77;14.85;;;;;;;;;;5073509;28;20041;-84
2021/03/31 06:54:29;;;;;;;27.85;15.45;;;;;;;;;;5056380;28;20044;-84
2021/03/31 06:56:56;;;;;;;25.60;15.40;;;;;;;;;;5056649;28;20047;-84
2021/03/31 06:59:32;;;;;;;26.20;15.38;;;;;;;;;;5056468;28;20081;-84
2021/03/31 07:01:58;;;;;;;30.17;15.93;;;;;;;;;;5055262;28;20036;-84
2021/03/31 07:04:24;;;;;;;26.35;15.77;;;;;;;;;;5056330;28;20094;-85
2021/03/31 07:07:03;;;;;;;27.77;15.57;;;;;;;;;;5056410;28;20036;-85
2021/03/31 07:09:29;;;;;;;39.05;19.30;;;;;;;;;;5056305;28;20043;-85
2021/03/31 07:11:55;;;;;;;22.05;14.98;;;;;;;;;;5072977;28;20040;-85
2021/03/31 07:14:21;;;;;;;28.25;16.83;;;;;;;;;;5073743;28;20032;-86
2021/03/31 07:16:48;;;;;;;25.88;16.35;;;;;;;;;;5072864;28;20384;-84
2021/03/31 07:19:14;;;;;;;26.92;16.02;;;;;;;;;;5072869;28;20060;-84
2021/03/31 07:21:40;;;;;;;29.02;16.83;;;;;;;;;;5072626;28;20036;-83
2021/03/31 07:24:07;;;;;;;27.92;16.02;;;;;;;;;;5072542;28;20036;-84
2021/03/31 07:26:33;;;;;;;30.00;17.63;;;;;;;;;;5073693;28;20043;-83
2021/03/31 07:28:59;;;;;;;26.75;15.88;;;;;;;;;;5072385;28;20032;-84
2021/03/31 07:31:29;;;;;;;26.38;16.25;;;;;;;;;;5072502;28;20498;-83
2021/03/31 07:34:05;;;;;;;25.35;16.83;;;;;;;;;;5073565;28;20086;-84
2021/03/31 07:36:31;;;;;;;24.67;15.98;;;;;;;;;;5055783;28;20503;-85
2021/03/31 07:38:57;;;;;;;26.30;15.55;;;;;;;;;;5055814;28;20044;-83
2021/03/31 07:41:23;;;;;;;28.83;16.73;;;;;;;;;;5073422;28;20054;-84
2021/03/31 07:43:49;;;;;;;24.85;15.93;;;;;;;;;;5072592;28;20539;-84
2021/03/31 07:46:16;;;;;;;23.65;15.82;;;;;;;;;;5072237;28;20114;-83
2021/03/31 07:48:42;;;;;;;22.67;16.15;;;;;;;;;;5073411;28;20434;-83
2021/03/31 07:51:21;;;;;;;24.25;16.77;;;;;;;;;;5072216;28;20036;-83
2021/03/31 07:53:48;;;;;;;24.00;16.33;;;;;;;;;;5072095;28;20045;-83
2021/03/31 07:56:15;;;;;;;28.80;18.10;;;;;;;;;;5055317;28;20098;-83
2021/03/31 07:58:41;;;;;;;22.02;15.82;;;;;;;;;;5072007;28;20063;-83
2021/03/31 08:01:09;;;;;;;26.13;16.88;;;;;;;;;;5073155;28;20040;-83
2021/03/31 08:03:41;;;;;;;26.58;16.27;;;;;;;;;;5073111;28;20067;-83
2021/03/31 08:06:19;;;;;;;27.63;16.55;;;;;;;;;;5073004;28;20078;-83
2021/03/31 08:08:46;;;;;;;26.58;16.20;;;;;;;;;;5073005;28;20066;-83
2021/03/31 08:11:32;;;;;;;24.27;15.52;;;;;;;;;;5038048;28;20411;-82
2021/03/31 08:13:58;;;;;;;25.98;16.10;;;;;;;;;;5072532;28;20076;-82
2021/03/31 08:16:30;;;;;;;23.17;16.23;;;;;;;;;;5071596;28;20064;-83
2021/03/31 08:18:56;;;;;;;25.00;15.75;;;;;;;;;;5054714;28;20523;-83
2021/03/31 08:21:23;;;;;;;25.23;15.85;;;;;;;;;;5071526;28;20071;-83
2021/03/31 08:23:49;;;;;;;23.40;14.95;;;;;;;;;;5055018;28;20036;-83
2021/03/31 08:26:28;;;;;;;24.17;16.30;;;;;;;;;;5071536;28;20036;-83
2021/03/31 08:28:55;;;;;;;25.08;16.15;;;;;;;;;;5066964;28;20032;-84
2021/03/31 08:31:21;;;;;;;24.73;16.17;;;;;;;;;;5072609;28;20044;-84
2021/03/31 08:33:47;;;;;;;22.45;15.55;;;;;;;;;;5071410;28;20434;-83
2021/03/31 08:36:14;;;;;;;24.25;16.08;;;;;;;;;;5054878;28;20090;-84
2021/03/31 08:38:40;;;;;;;28.17;18.35;;;;;;;;;;5071402;28;20043;-84
2021/03/31 08:41:15;;;;;;;26.63;16.33;;;;;;;;;;5071300;28;20047;-82
2021/03/31 08:43:43;;;;;;;23.88;16.67;;;;;;;;;;5054482;28;20090;-83
2021/03/31 08:46:09;;;;;;;25.08;16.98;;;;;;;;;;5072012;28;20767;-84
2021/03/31 08:48:36;;;;;;;28.27;17.65;;;;;;;;;;5071218;28;20040;-85
2021/03/31 08:51:06;;;;;;;23.00;15.88;;;;;;;;;;5071236;28;20037;-87
2021/03/31 08:53:32;;;;;;;24.15;16.30;;;;;;;;;;5054320;28;20120;-86
2021/03/31 08:55:58;;;;;;;24.88;16.73;;;;;;;;;;5072201;28;20047;-88
2021/03/31 08:58:26;;;;;;;25.90;16.83;;;;;;;;;;5071183;28;20029;-87
2021/03/31 09:00:53;;;;;;;22.23;16.95;;;;;;;;;;5071248;28;20044;-87
2021/03/31 09:03:19;;;;;;;26.98;17.40;;;;;;;;;;5071057;28;20036;-86
2021/03/31 09:05:58;;;;;;;29.10;18.98;;;;;;;;;;5070928;28;20040;-84
2021/03/31 09:08:24;;;;;;;29.33;18.90;;;;;;;;;;5072263;28;20032;-83
2021/03/31 09:11:03;;;;;;;24.10;16.83;;;;;;;;;;5072188;28;20040;-85
2021/03/31 09:13:33;;;;;;;24.67;17.90;;;;;;;;;;5072051;28;20047;-82
2021/03/31 09:16:00;;;;;;;23.60;16.83;;;;;;;;;;5054173;28;20041;-84
2021/03/31 09:18:26;;;;;;;25.77;15.95;;;;;;;;;;5072058;28;20040;-83
2021/03/31 09:20:52;;;;;;;27.45;17.20;;;;;;;;;;5071174;28;20037;-83
2021/03/31 09:23:19;;;;;;;25.48;16.85;;;;;;;;;;5054098;28;20040;-83
2021/03/31 09:25:53;;;;;;;25.25;16.98;;;;;;;;;;5075932;28;20349;-82
2021/03/31 09:28:19;;;;;;;22.23;16.63;;;;;;;;;;5076289;28;20155;-82
2021/03/31 09:30:46;;;;;;;22.27;16.73;;;;;;;;;;5058225;28;20206;-82
2021/03/31 09:33:15;;;;;;;25.52;17.55;;;;;;;;;;5075933;28;20041;-83
2021/03/31 09:35:41;;;;;;;23.77;17.73;;;;;;;;;;5077667;28;20046;-82
2021/03/31 09:38:08;;;;;;;26.92;18.50;;;;;;;;;;5077710;28;20372;-81
2021/03/31 09:40:36;;;;;;;28.23;18.20;;;;;;;;;;5077983;28;20467;-82
2021/03/31 09:43:03;;;;;;;24.88;17.17;;;;;;;;;;5061264;28;20043;-82
2021/03/31 09:45:30;;;;;;;25.75;17.70;;;;;;;;;;5094467;28;20059;-82
2021/03/31 09:47:57;;;;;;;23.45;17.95;;;;;;;;;;5095943;28;20136;-82
2021/03/31 09:50:29;;;;;;;25.42;17.88;;;;;;;;;;5095742;28;20086;-82
2021/03/31 09:52:55;;;;;;;24.33;18.10;;;;;;;;;;5094537;28;20040;-83
2021/03/31 09:55:21;;;;;;;24.15;18.13;;;;;;;;;;5094252;28;20119;-83
2021/03/31 09:57:48;;;;;;;24.95;17.73;;;;;;;;;;5094377;28;20060;-83
2021/03/31 10:00:16;;;;;;;24.70;18.50;;;;;;;;;;5095497;28;20036;-82
2021/03/31 10:02:42;;;;;;;25.02;18.10;;;;;;;;;;5094291;28;20076;-82
2021/03/31 10:05:10;;;;;;;24.23;17.85;;;;;;;;;;5095232;28;20039;-82
2021/03/31 10:07:36;;;;;;;26.10;18.38;;;;;;;;;;5094175;28;20543;-86
2021/03/31 10:10:03;;;;;;;23.63;17.40;;;;;;;;;;5094096;28;20032;-85
2021/03/31 10:12:32;;;;;;;23.63;17.30;;;;;;;;;;5095203;28;20163;-83
2021/03/31 10:14:59;;;;;;;25.90;17.60;;;;;;;;;;5095132;28;20117;-83
2021/03/31 10:17:26;;;;;;;26.60;19.45;;;;;;;;;;5077102;28;20044;-83
2021/03/31 10:19:52;;;;;;;26.73;18.10;;;;;;;;;;5095013;28;20148;-83
2021/03/31 10:22:19;;;;;;;25.10;17.88;;;;;;;;;;5094960;28;20032;-83
2021/03/31 10:24:45;;;;;;;28.92;18.90;;;;;;;;;;5093759;28;20127;-83
2021/03/31 10:27:12;;;;;;;25.80;17.52;;;;;;;;;;5094877;28;20472;-83
2021/03/31 10:29:48;;;;;;;25.83;17.60;;;;;;;;;;5094956;28;20047;-83
2021/03/31 10:32:16;;;;;;;26.15;17.92;;;;;;;;;;5094475;28;20505;-83
2021/03/31 10:34:45;;;;;;;25.60;18.30;;;;;;;;;;5094436;28;20143;-83
2021/03/31 10:37:22;;;;;;;27.83;18.42;;;;;;;;;;5094774;28;20380;-83
2021/03/31 10:48:14;;;;;;;27.13;17.88;;;;;;;;;;5094632;28;20036;-84
2021/03/31 10:53:13;;;;;;;29.08;18.88;;;;;;;;;;5094290;28;20613;-84
2021/03/31 10:55:42;;;;;;;26.98;17.67;;;;;;;;;;5094336;28;20368;-84
2021/03/31 10:58:08;;;;;;;29.40;19.42;;;;;;;;;;5076408;28;20040;-84
2021/03/31 11:00:35;;;;;;;27.05;19.38;;;;;;;;;;5076183;28;20476;-84
2021/03/31 11:03:01;;;;;;;29.23;18.98;;;;;;;;;;5076321;28;20036;-84
2021/03/31 11:05:27;;;;;;;28.20;19.10;;;;;;;;;;5093024;28;20036;-84
2021/03/31 11:07:54;;;;;;;33.08;19.25;;;;;;;;;;5076162;28;20036;-85
2021/03/31 11:10:20;;;;;;;32.67;19.83;;;;;;;;;;5094105;28;20038;-84
2021/03/31 11:12:46;;;;;;;30.85;18.73;;;;;;;;;;5092911;28;20040;-84
2021/03/31 11:15:15;;;;;;;31.02;20.23;;;;;;;;;;5075961;28;20482;-84
2021/03/31 11:20:47;;;;;;;30.27;18.45;;;;;;;;;;5092988;28;20119;-84
2021/03/31 11:26:18;;;;;;;33.33;18.10;;;;;;;;;;5092766;28;20066;-84
2021/03/31 11:28:44;;;;;;;33.83;18.63;;;;;;;;;;5093728;28;20044;-83
2021/03/31 11:31:30;;;;;;;30.67;18.55;;;;;;;;;;5079027;28;20118;-84
2021/03/31 11:33:56;;;;;;;32.42;18.92;;;;;;;;;;5075331;28;20431;-86
2021/03/31 11:36:42;;;;;;;32.22;19.08;;;;;;;;;;5078610;28;20044;-84
2021/03/31 11:39:08;;;;;;;30.58;18.42;;;;;;;;;;5093423;28;20042;-84
2021/03/31 11:41:34;;;;;;;34.05;18.63;;;;;;;;;;5093563;28;20040;-85
2021/03/31 11:44:00;;;;;;;33.42;19.73;;;;;;;;;;5075193;28;20044;-84
2021/03/31 11:46:47;;;;;;;34.08;19.50;;;;;;;;;;5071379;28;20092;-86
2021/03/31 11:49:13;;;;;;;34.63;19.73;;;;;;;;;;5088515;28;20060;-85
2021/03/31 11:51:59;;;;;;;30.88;18.55;;;;;;;;;;5072151;28;20094;-83
2021/03/31 11:54:45;;;;;;;32.10;18.95;;;;;;;;;;5071861;28;20041;-84
2021/03/31 11:57:11;;;;;;;35.20;19.23;;;;;;;;;;5055213;28;20041;-83
2021/03/31 11:59:57;;;;;;;36.63;21.88;;;;;;;;;;5058242;28;20141;-83
2021/03/31 12:02:23;;;;;;;34.13;21.50;;;;;;;;;;5072898;28;20048;-83
2021/03/31 12:05:09;;;;;;;35.05;21.10;;;;;;;;;;5058095;28;20122;-83
2021/03/31 12:07:55;;;;;;;35.72;21.15;;;;;;;;;;5071915;28;20062;-84
2021/03/31 12:10:21;;;;;;;33.13;20.52;;;;;;;;;;5088260;28;20523;-85
2021/03/31 12:12:47;;;;;;;30.05;19.50;;;;;;;;;;5072635;28;20060;-84
2021/03/31 12:15:33;;;;;;;28.73;16.80;;;;;;;;;;5071664;28;20052;-84
2021/03/31 12:17:59;;;;;;;26.77;15.18;;;;;;;;;;5072572;28;20036;-84
2021/03/31 12:20:25;;;;;;;22.83;14.23;;;;;;;;;;5071209;28;20498;-84
2021/03/31 12:22:54;;;;;;;26.58;16.48;;;;;;;;;;5071075;28;20146;-84
2021/03/31 12:25:21;;;;;;;23.02;15.55;;;;;;;;;;5054211;28;20048;-85
2021/03/31 12:27:49;;;;;;;24.63;15.30;;;;;;;;;;5087923;28;20037;-85
2021/03/31 12:30:15;;;;;;;25.20;16.15;;;;;;;;;;5071030;28;20393;-85
2021/03/31 12:33:02;;;;;;;29.52;17.33;;;;;;;;;;5071562;28;20049;-85
2021/03/31 12:35:29;;;;;;;30.75;17.55;;;;;;;;;;5072104;28;20090;-84
2021/03/31 12:38:15;;;;;;;26.63;13.77;;;;;;;;;;5071403;28;20083;-84
2021/03/31 12:41:01;;;;;;;26.17;15.73;;;;;;;;;;5057734;28;20048;-85
2021/03/31 12:43:28;;;;;;;21.88;13.85;;;;;;;;;;5087569;28;20040;-84
2021/03/31 12:45:54;;;;;;;21.55;12.95;;;;;;;;;;5087445;28;20123;-85
2021/03/31 12:48:20;;;;;;;19.20;11.20;;;;;;;;;;5070780;28;20070;-84
2021/03/31 12:50:48;;;;;;;22.25;13.20;;;;;;;;;;5053975;28;20566;-85
2021/03/31 12:53:19;;;;;;;24.20;14.52;;;;;;;;;;5072041;28;20090;-84
2021/03/31 12:56:05;;;;;;;23.85;13.75;;;;;;;;;;5057363;28;20052;-85
2021/03/31 12:58:37;;;;;;;24.48;14.57;;;;;;;;;;5070634;28;20064;-85
2021/03/31 13:01:10;;;;;;;22.38;13.65;;;;;;;;;;5084241;28;20039;-84
2021/03/31 13:03:56;;;;;;;30.08;16.13;;;;;;;;;;5050939;28;20466;-83
2021/03/31 13:06:42;;;;;;;27.50;16.20;;;;;;;;;;5050158;28;20049;-83
2021/03/31 13:09:08;;;;;;;25.67;14.63;;;;;;;;;;5067487;28;20071;-83
2021/03/31 13:11:35;;;;;;;25.17;15.13;;;;;;;;;;5052004;28;20033;-83
2021/03/31 13:23:10;;;;;;;21.23;11.93;;;;;;;;;;5065441;28;20033;-83
2021/03/31 13:26:02;;;;;;;22.40;12.30;;;;;;;;;;5051005;28;20140;-83
2021/03/31 13:29:21;;;;;;;19.13;12.85;;;;;;;;;;5050922;28;20078;-83
2021/03/31 13:31:54;;;;;;;21.73;13.38;;;;;;;;;;5050340;28;20048;-83
2021/03/31 13:34:25;;;;;;;22.10;12.68;;;;;;;;;;5050200;28;20500;-83
2021/03/31 13:39:59;;;;;;;16.60;10.77;;;;;;;;;;5014013;28;20055;-83
2021/03/31 13:42:25;;;;;;;18.25;12.45;;;;;;;;;;5051573;28;20033;-83
2021/03/31 13:44:51;;;;;;;24.42;14.27;;;;;;;;;;5066908;28;20049;-83
2021/03/31 13:47:21;;;;;;;24.80;14.20;;;;;;;;;;5069284;28;20057;-83
2021/03/31 13:50:00;;;;;;;26.52;15.18;;;;;;;;;;5053855;28;20064;-82
2021/03/31 13:52:49;;;;;;;25.25;14.95;;;;;;;;;;5042830;28;20044;-83
2021/03/31 13:55:37;;;;;;;28.00;16.70;;;;;;;;;;5042468;28;20041;-83
2021/03/31 13:58:05;;;;;;;27.98;16.55;;;;;;;;;;5053575;28;20040;-83
2021/03/31 14:00:51;;;;;;;24.90;15.10;;;;;;;;;;5043001;28;20446;-84
2021/03/31 14:03:37;;;;;;;27.85;15.77;;;;;;;;;;5056777;28;20467;-82
2021/03/31 14:06:03;;;;;;;25.98;15.77;;;;;;;;;;5071311;28;20040;-83
2021/03/31 14:08:30;;;;;;;32.65;17.58;;;;;;;;;;5071521;28;20115;-83
2021/03/31 14:11:16;;;;;;;33.60;17.50;;;;;;;;;;5045603;28;20090;-83
2021/03/31 14:13:42;;;;;;;29.17;17.85;;;;;;;;;;5057148;28;20040;-83
2021/03/31 14:16:32;;;;;;;31.15;17.13;;;;;;;;;;5060003;28;20472;-83
2021/03/31 14:19:19;;;;;;;25.88;15.23;;;;;;;;;;5046229;28;20106;-84
2021/03/31 14:21:45;;;;;;;31.48;17.65;;;;;;;;;;5073732;28;20058;-83
2021/03/31 14:24:11;;;;;;;24.38;16.75;;;;;;;;;;5075034;28;20041;-83
2021/03/31 14:26:37;;;;;;;27.08;16.73;;;;;;;;;;5074844;28;20041;-82
2021/03/31 14:29:03;;;;;;;27.75;16.35;;;;;;;;;;5073866;28;20047;-83
2021/03/31 14:31:29;;;;;;;24.05;14.90;;;;;;;;;;5074919;28;20115;-83
2021/03/31 14:34:15;;;;;;;26.67;16.55;;;;;;;;;;5059846;28;20048;-83
2021/03/31 14:36:41;;;;;;;30.08;17.40;;;;;;;;;;5073545;28;20315;-83
2021/03/31 14:39:09;;;;;;;32.47;17.20;;;;;;;;;;5073444;28;20092;-83
2021/03/31 14:42:01;;;;;;;28.60;16.50;;;;;;;;;;5038816;28;20045;-84
2021/03/31 14:44:40;;;;;;;27.25;16.40;;;;;;;;;;5037374;28;20049;-84
2021/03/31 14:47:23;;;;;;;27.20;15.77;;;;;;;;;;5037551;28;20412;-84
2021/03/31 14:50:19;;;;;;;29.92;16.38;;;;;;;;;;5063915;28;20071;-83
2021/03/31 15:01:00;;;;;;;27.60;15.38;;;;;;;;;;5090813;28;20055;-83
2021/03/31 15:03:26;;;;;;;24.65;15.00;;;;;;;;;;5076120;28;20036;-83
2021/03/31 15:05:52;;;;;;;27.30;15.75;;;;;;;;;;5075879;28;20356;-83